sensor_id;sensor_type;location;lat;lon;timestamp;temperature;humidity
3560;DHT22;1794;48.804;9.156;2022-09-02T00:01:45;11.90;99.90
3560;DHT22;1794;48.804;9.156;2022-09-02T00:04:16;11.90;99.90
3560;DHT22;1794;48.804;9.156;2022-09-02T00:06:45;11.90;99.90
3560;DHT22;1794;48.804;9.156;2022-09-02T00:09:14;11.80;99.90
3560;DHT22;1794;48.804;9.156;2022-09-02T00:11:43;11.80;99.90
3560;DHT22;1794;48.804;9.156;2022-09-02T00:14:14;11.80;99.90
3560;DHT22;1794;48.804;9.156;2022-09-02T00:16:42;11.80;99.90
3560;DHT22;1794;48.804;9.156;2022-09-02T00:19:16;11.70;99.90
3560;DHT22;1794;48.804;9.156;2022-09-02T00:21:44;11.70;99.90
3560;DHT22;1794;48.804;9.156;2022-09-02T00:24:11;11.70;99.90
3560;DHT22;1794;48.804;9.156;2022-09-02T00:26:37;11.70;99.90
3560;DHT22;1794;48.804;9.156;2022-09-02T00:29:04;11.70;99.90
3560;DHT22;1794;48.804;9.156;2022-09-02T00:31:32;11.60;99.90
3560;DHT22;1794;48.804;9.156;2022-09-02T00:34:01;11.60;99.90
3560;DHT22;1794;48.804;9.156;2022-09-02T00:36:28;11.60;99.90
3560;DHT22;1794;48.804;9.156;2022-09-02T00:38:54;11.60;99.90
3560;DHT22;1794;48.804;9.156;2022-09-02T00:41:23;11.50;99.90
3560;DHT22;1794;48.804;9.156;2022-09-02T00:43:53;11.50;99.90
3560;DHT22;1794;48.804;9.156;2022-09-02T00:46:25;11.50;99.90
3560;DHT22;1794;48.804;9.156;2022-09-02T00:48:57;11.40;99.90
3560;DHT22;1794;48.804;9.156;2022-09-02T00:51:25;11.40;99.90
3560;DHT22;1794;48.804;9.156;2022-09-02T00:53:53;11.40;99.90
3560;DHT22;1794;48.804;9.156;2022-09-02T00:56:22;11.30;99.90
3560;DHT22;1794;48.804;9.156;2022-09-02T00:58:50;11.30;99.90
3560;DHT22;1794;48.804;9.156;2022-09-02T01:01:17;11.30;99.90
3560;DHT22;1794;48.804;9.156;2022-09-02T01:03:47;11.30;99.90
3560;DHT22;1794;48.804;9.156;2022-09-02T01:06:20;11.20;99.90
3560;DHT22;1794;48.804;9.156;2022-09-02T01:08:54;11.20;99.90
3560;DHT22;1794;48.804;9.156;2022-09-02T01:11:23;11.20;99.90
3560;DHT22;1794;48.804;9.156;2022-09-02T01:13:51;11.20;99.90
3560;DHT22;1794;48.804;9.156;2022-09-02T01:16:22;11.20;99.90
3560;DHT22;1794;48.804;9.156;2022-09-02T01:18:52;11.10;99.90
3560;DHT22;1794;48.804;9.156;2022-09-02T01:21:22;11.10;99.90
3560;DHT22;1794;48.804;9.156;2022-09-02T01:23:51;11.10;99.90
3560;DHT22;1794;48.804;9.156;2022-09-02T01:26:18;11.10;99.90
3560;DHT22;1794;48.804;9.156;2022-09-02T01:28:45;11.00;99.90
3560;DHT22;1794;48.804;9.156;2022-09-02T01:31:12;11.10;99.90
3560;DHT22;1794;48.804;9.156;2022-09-02T01:33:39;11.00;99.90
3560;DHT22;1794;48.804;9.156;2022-09-02T01:36:06;11.00;99.90
3560;DHT22;1794;48.804;9.156;2022-09-02T01:38:33;11.00;99.90
3560;DHT22;1794;48.804;9.156;2022-09-02T01:41:01;11.00;99.90
3560;DHT22;1794;48.804;9.156;2022-09-02T01:43:28;11.00;99.90
3560;DHT22;1794;48.804;9.156;2022-09-02T01:45:57;11.00;99.90
3560;DHT22;1794;48.804;9.156;2022-09-02T01:48:24;10.90;99.90
3560;DHT22;1794;48.804;9.156;2022-09-02T01:50:54;10.90;99.90
3560;DHT22;1794;48.804;9.156;2022-09-02T01:53:21;10.90;99.90
3560;DHT22;1794;48.804;9.156;2022-09-02T01:55:47;10.90;99.90
3560;DHT22;1794;48.804;9.156;2022-09-02T01:58:16;10.90;99.90
3560;DHT22;1794;48.804;9.156;2022-09-02T02:00:43;10.80;99.90
3560;DHT22;1794;48.804;9.156;2022-09-02T02:03:09;10.80;99.90
3560;DHT22;1794;48.804;9.156;2022-09-02T02:05:36;10.80;99.90
3560;DHT22;1794;48.804;9.156;2022-09-02T02:08:04;10.80;99.90
3560;DHT22;1794;48.804;9.156;2022-09-02T02:10:31;10.80;99.90
3560;DHT22;1794;48.804;9.156;2022-09-02T02:12:59;10.70;99.90
3560;DHT22;1794;48.804;9.156;2022-09-02T02:15:28;10.80;99.90
3560;DHT22;1794;48.804;9.156;2022-09-02T02:17:54;10.70;99.90
3560;DHT22;1794;48.804;9.156;2022-09-02T02:20:22;10.70;99.90
3560;DHT22;1794;48.804;9.156;2022-09-02T02:22:49;10.70;99.90
3560;DHT22;1794;48.804;9.156;2022-09-02T02:25:16;10.70;99.90
3560;DHT22;1794;48.804;9.156;2022-09-02T02:27:43;10.60;99.90
3560;DHT22;1794;48.804;9.156;2022-09-02T02:30:12;10.70;99.90
3560;DHT22;1794;48.804;9.156;2022-09-02T02:32:40;10.60;99.90
3560;DHT22;1794;48.804;9.156;2022-09-02T02:35:08;10.60;99.90
3560;DHT22;1794;48.804;9.156;2022-09-02T02:37:35;10.60;99.90
3560;DHT22;1794;48.804;9.156;2022-09-02T02:40:03;10.60;99.90
3560;DHT22;1794;48.804;9.156;2022-09-02T02:42:30;10.60;99.90
3560;DHT22;1794;48.804;9.156;2022-09-02T02:44:57;10.50;99.90
3560;DHT22;1794;48.804;9.156;2022-09-02T02:47:24;10.50;99.90
3560;DHT22;1794;48.804;9.156;2022-09-02T02:49:52;10.50;99.90
3560;DHT22;1794;48.804;9.156;2022-09-02T02:52:19;10.50;99.90
3560;DHT22;1794;48.804;9.156;2022-09-02T02:54:46;10.50;99.90
3560;DHT22;1794;48.804;9.156;2022-09-02T02:57:13;10.40;99.90
3560;DHT22;1794;48.804;9.156;2022-09-02T02:59:39;10.50;99.90
3560;DHT22;1794;48.804;9.156;2022-09-02T03:02:06;10.40;99.90
3560;DHT22;1794;48.804;9.156;2022-09-02T03:04:34;10.40;99.90
3560;DHT22;1794;48.804;9.156;2022-09-02T03:07:02;10.40;99.90
3560;DHT22;1794;48.804;9.156;2022-09-02T03:09:31;10.40;99.90
3560;DHT22;1794;48.804;9.156;2022-09-02T03:11:59;10.30;99.90
3560;DHT22;1794;48.804;9.156;2022-09-02T03:14:26;10.30;99.90
3560;DHT22;1794;48.804;9.156;2022-09-02T03:16:52;10.30;99.90
3560;DHT22;1794;48.804;9.156;2022-09-02T03:19:19;10.20;99.90
3560;DHT22;1794;48.804;9.156;2022-09-02T03:21:46;10.20;99.90
3560;DHT22;1794;48.804;9.156;2022-09-02T03:24:14;10.20;99.90
3560;DHT22;1794;48.804;9.156;2022-09-02T03:26:42;10.20;99.90
3560;DHT22;1794;48.804;9.156;2022-09-02T03:29:09;10.20;99.90
3560;DHT22;1794;48.804;9.156;2022-09-02T03:31:36;10.20;99.90
3560;DHT22;1794;48.804;9.156;2022-09-02T03:34:03;10.20;99.90
3560;DHT22;1794;48.804;9.156;2022-09-02T03:36:32;10.10;99.90
3560;DHT22;1794;48.804;9.156;2022-09-02T03:38:59;10.10;99.90
3560;DHT22;1794;48.804;9.156;2022-09-02T03:41:28;10.10;99.90
3560;DHT22;1794;48.804;9.156;2022-09-02T03:43:55;10.00;99.90
3560;DHT22;1794;48.804;9.156;2022-09-02T03:46:22;10.10;99.90
3560;DHT22;1794;48.804;9.156;2022-09-02T03:48:49;10.00;99.90
3560;DHT22;1794;48.804;9.156;2022-09-02T03:51:17;10.00;99.90
3560;DHT22;1794;48.804;9.156;2022-09-02T03:53:43;10.00;99.90
3560;DHT22;1794;48.804;9.156;2022-09-02T03:56:12;10.00;99.90
3560;DHT22;1794;48.804;9.156;2022-09-02T03:58:42;9.90;99.90
3560;DHT22;1794;48.804;9.156;2022-09-02T04:01:13;9.90;99.90
3560;DHT22;1794;48.804;9.156;2022-09-02T04:03:40;9.80;99.90
3560;DHT22;1794;48.804;9.156;2022-09-02T04:06:08;9.80;99.90
3560;DHT22;1794;48.804;9.156;2022-09-02T04:08:36;9.70;99.90
3560;DHT22;1794;48.804;9.156;2022-09-02T04:11:05;9.70;99.90
3560;DHT22;1794;48.804;9.156;2022-09-02T04:13:32;9.70;99.90
3560;DHT22;1794;48.804;9.156;2022-09-02T04:16:05;9.70;99.90
3560;DHT22;1794;48.804;9.156;2022-09-02T04:18:32;9.80;99.90
3560;DHT22;1794;48.804;9.156;2022-09-02T04:20:59;9.70;99.90
3560;DHT22;1794;48.804;9.156;2022-09-02T04:23:26;9.70;99.90
3560;DHT22;1794;48.804;9.156;2022-09-02T04:25:53;9.70;99.90
3560;DHT22;1794;48.804;9.156;2022-09-02T04:28:20;9.70;99.90
3560;DHT22;1794;48.804;9.156;2022-09-02T04:30:47;9.60;99.90
3560;DHT22;1794;48.804;9.156;2022-09-02T04:33:15;9.70;99.90
3560;DHT22;1794;48.804;9.156;2022-09-02T04:35:43;9.60;99.90
3560;DHT22;1794;48.804;9.156;2022-09-02T04:38:10;9.60;99.90
3560;DHT22;1794;48.804;9.156;2022-09-02T04:40:39;9.70;99.90
3560;DHT22;1794;48.804;9.156;2022-09-02T04:43:06;9.70;99.90
3560;DHT22;1794;48.804;9.156;2022-09-02T04:45:32;9.70;99.90
3560;DHT22;1794;48.804;9.156;2022-09-02T04:47:59;9.70;99.90
3560;DHT22;1794;48.804;9.156;2022-09-02T04:50:27;9.70;99.90
3560;DHT22;1794;48.804;9.156;2022-09-02T04:52:54;9.60;99.90
3560;DHT22;1794;48.804;9.156;2022-09-02T04:55:21;9.70;99.90
3560;DHT22;1794;48.804;9.156;2022-09-02T04:57:48;9.70;99.90
3560;DHT22;1794;48.804;9.156;2022-09-02T05:00:15;9.80;99.90
3560;DHT22;1794;48.804;9.156;2022-09-02T05:02:43;9.70;99.90
3560;DHT22;1794;48.804;9.156;2022-09-02T05:05:10;9.80;99.90
3560;DHT22;1794;48.804;9.156;2022-09-02T05:07:38;9.80;99.90
3560;DHT22;1794;48.804;9.156;2022-09-02T05:10:07;9.80;99.90
3560;DHT22;1794;48.804;9.156;2022-09-02T05:12:34;9.80;99.90
3560;DHT22;1794;48.804;9.156;2022-09-02T05:15:02;9.80;99.90
3560;DHT22;1794;48.804;9.156;2022-09-02T05:17:30;9.80;99.90
3560;DHT22;1794;48.804;9.156;2022-09-02T05:19:57;9.80;99.90
3560;DHT22;1794;48.804;9.156;2022-09-02T05:22:24;9.90;99.90
3560;DHT22;1794;48.804;9.156;2022-09-02T05:24:55;9.90;99.90
3560;DHT22;1794;48.804;9.156;2022-09-02T05:27:23;9.90;99.90
3560;DHT22;1794;48.804;9.156;2022-09-02T05:29:53;9.90;99.90
3560;DHT22;1794;48.804;9.156;2022-09-02T05:32:20;9.90;99.90
3560;DHT22;1794;48.804;9.156;2022-09-02T05:34:47;10.00;99.90
3560;DHT22;1794;48.804;9.156;2022-09-02T05:37:14;10.00;99.90
3560;DHT22;1794;48.804;9.156;2022-09-02T05:39:42;10.00;99.90
3560;DHT22;1794;48.804;9.156;2022-09-02T05:42:10;10.00;99.90
3560;DHT22;1794;48.804;9.156;2022-09-02T05:44:36;10.10;99.90
3560;DHT22;1794;48.804;9.156;2022-09-02T05:47:04;10.10;99.90
3560;DHT22;1794;48.804;9.156;2022-09-02T05:49:31;10.10;99.90
3560;DHT22;1794;48.804;9.156;2022-09-02T05:51:59;10.10;99.90
3560;DHT22;1794;48.804;9.156;2022-09-02T05:54:28;10.10;99.90
3560;DHT22;1794;48.804;9.156;2022-09-02T05:56:58;10.10;99.90
3560;DHT22;1794;48.804;9.156;2022-09-02T05:59:28;10.10;99.90
3560;DHT22;1794;48.804;9.156;2022-09-02T06:01:55;10.10;99.90
3560;DHT22;1794;48.804;9.156;2022-09-02T06:04:22;10.20;99.90
3560;DHT22;1794;48.804;9.156;2022-09-02T06:06:49;10.20;99.90
3560;DHT22;1794;48.804;9.156;2022-09-02T06:09:19;10.30;99.90
3560;DHT22;1794;48.804;9.156;2022-09-02T06:11:46;10.40;99.90
3560;DHT22;1794;48.804;9.156;2022-09-02T06:14:14;10.50;99.90
3560;DHT22;1794;48.804;9.156;2022-09-02T06:16:43;10.80;99.90
3560;DHT22;1794;48.804;9.156;2022-09-02T06:19:10;11.10;99.90
3560;DHT22;1794;48.804;9.156;2022-09-02T06:21:37;11.40;99.90
3560;DHT22;1794;48.804;9.156;2022-09-02T06:24:05;11.50;99.90
3560;DHT22;1794;48.804;9.156;2022-09-02T06:26:32;11.80;99.90
3560;DHT22;1794;48.804;9.156;2022-09-02T06:28:59;12.30;99.90
3560;DHT22;1794;48.804;9.156;2022-09-02T06:31:26;12.80;99.90
3560;DHT22;1794;48.804;9.156;2022-09-02T06:33:57;13.10;99.90
3560;DHT22;1794;48.804;9.156;2022-09-02T06:36:27;13.70;99.90
3560;DHT22;1794;48.804;9.156;2022-09-02T06:38:56;14.10;99.90
3560;DHT22;1794;48.804;9.156;2022-09-02T06:41:25;14.70;99.90
3560;DHT22;1794;48.804;9.156;2022-09-02T06:43:54;15.40;99.90
3560;DHT22;1794;48.804;9.156;2022-09-02T06:46:24;16.10;99.90
3560;DHT22;1794;48.804;9.156;2022-09-02T06:48:51;15.80;99.90
3560;DHT22;1794;48.804;9.156;2022-09-02T06:51:21;16.30;99.90
3560;DHT22;1794;48.804;9.156;2022-09-02T06:53:48;16.90;99.90
3560;DHT22;1794;48.804;9.156;2022-09-02T06:56:15;16.70;99.90
3560;DHT22;1794;48.804;9.156;2022-09-02T06:58:41;17.40;99.90
3560;DHT22;1794;48.804;9.156;2022-09-02T07:01:08;17.70;99.90
3560;DHT22;1794;48.804;9.156;2022-09-02T07:03:35;18.80;99.90
3560;DHT22;1794;48.804;9.156;2022-09-02T07:06:21;18.10;99.90
3560;DHT22;1794;48.804;9.156;2022-09-02T07:08:48;18.70;99.90
3560;DHT22;1794;48.804;9.156;2022-09-02T07:11:17;18.70;99.90
3560;DHT22;1794;48.804;9.156;2022-09-02T07:13:45;19.80;99.90
3560;DHT22;1794;48.804;9.156;2022-09-02T07:16:11;20.90;99.90
3560;DHT22;1794;48.804;9.156;2022-09-02T07:18:38;20.60;99.90
3560;DHT22;1794;48.804;9.156;2022-09-02T07:21:07;21.00;99.90
3560;DHT22;1794;48.804;9.156;2022-09-02T07:23:35;20.60;99.90
3560;DHT22;1794;48.804;9.156;2022-09-02T07:26:02;20.50;99.90
3560;DHT22;1794;48.804;9.156;2022-09-02T07:28:29;20.80;99.90
3560;DHT22;1794;48.804;9.156;2022-09-02T07:30:56;20.10;99.90
3560;DHT22;1794;48.804;9.156;2022-09-02T07:33:23;20.90;99.90
3560;DHT22;1794;48.804;9.156;2022-09-02T07:35:49;21.50;99.90
3560;DHT22;1794;48.804;9.156;2022-09-02T07:38:17;21.60;99.90
3560;DHT22;1794;48.804;9.156;2022-09-02T07:40:45;21.60;99.90
3560;DHT22;1794;48.804;9.156;2022-09-02T07:43:13;22.00;99.90
3560;DHT22;1794;48.804;9.156;2022-09-02T07:45:40;22.40;99.90
3560;DHT22;1794;48.804;9.156;2022-09-02T07:48:08;22.50;99.90
3560;DHT22;1794;48.804;9.156;2022-09-02T07:50:36;22.30;99.90
3560;DHT22;1794;48.804;9.156;2022-09-02T07:53:03;22.60;99.90
3560;DHT22;1794;48.804;9.156;2022-09-02T07:55:31;23.10;99.90
3560;DHT22;1794;48.804;9.156;2022-09-02T07:58:02;23.00;99.90
3560;DHT22;1794;48.804;9.156;2022-09-02T08:00:29;23.40;99.90
3560;DHT22;1794;48.804;9.156;2022-09-02T08:02:56;22.30;99.90
3560;DHT22;1794;48.804;9.156;2022-09-02T08:05:23;21.60;99.90
3560;DHT22;1794;48.804;9.156;2022-09-02T08:07:50;23.00;99.90
3560;DHT22;1794;48.804;9.156;2022-09-02T08:10:17;24.20;99.90
3560;DHT22;1794;48.804;9.156;2022-09-02T08:12:46;24.00;99.90
3560;DHT22;1794;48.804;9.156;2022-09-02T08:15:14;24.40;99.90
3560;DHT22;1794;48.804;9.156;2022-09-02T08:17:41;25.10;99.90
3560;DHT22;1794;48.804;9.156;2022-09-02T08:20:09;25.70;99.90
3560;DHT22;1794;48.804;9.156;2022-09-02T08:22:37;26.60;99.90
3560;DHT22;1794;48.804;9.156;2022-09-02T08:25:05;27.80;99.90
3560;DHT22;1794;48.804;9.156;2022-09-02T08:27:33;28.50;99.90
3560;DHT22;1794;48.804;9.156;2022-09-02T08:30:00;27.50;99.90
3560;DHT22;1794;48.804;9.156;2022-09-02T08:32:28;26.00;99.90
3560;DHT22;1794;48.804;9.156;2022-09-02T08:34:57;25.70;99.90
3560;DHT22;1794;48.804;9.156;2022-09-02T08:37:27;27.20;99.90
3560;DHT22;1794;48.804;9.156;2022-09-02T08:39:53;28.40;99.90
3560;DHT22;1794;48.804;9.156;2022-09-02T08:42:22;27.90;99.90
3560;DHT22;1794;48.804;9.156;2022-09-02T08:44:51;28.60;99.90
3560;DHT22;1794;48.804;9.156;2022-09-02T08:47:24;29.80;99.90
3560;DHT22;1794;48.804;9.156;2022-09-02T08:49:57;29.00;99.90
3560;DHT22;1794;48.804;9.156;2022-09-02T08:52:28;29.40;99.90
3560;DHT22;1794;48.804;9.156;2022-09-02T08:54:56;30.70;99.90
3560;DHT22;1794;48.804;9.156;2022-09-02T08:57:24;27.90;99.90
3560;DHT22;1794;48.804;9.156;2022-09-02T08:59:52;28.40;99.90
3560;DHT22;1794;48.804;9.156;2022-09-02T09:02:25;26.90;99.90
3560;DHT22;1794;48.804;9.156;2022-09-02T09:05:13;27.40;99.90
3560;DHT22;1794;48.804;9.156;2022-09-02T09:07:53;26.10;99.90
3560;DHT22;1794;48.804;9.156;2022-09-02T09:10:29;27.40;99.90
3560;DHT22;1794;48.804;9.156;2022-09-02T09:13:14;27.20;99.90
3560;DHT22;1794;48.804;9.156;2022-09-02T09:15:48;28.60;98.80
3560;DHT22;1794;48.804;9.156;2022-09-02T09:18:20;27.00;99.90
3560;DHT22;1794;48.804;9.156;2022-09-02T09:20:52;28.30;98.50
3560;DHT22;1794;48.804;9.156;2022-09-02T09:23:26;29.60;97.70
3560;DHT22;1794;48.804;9.156;2022-09-02T09:25:58;29.80;95.10
3560;DHT22;1794;48.804;9.156;2022-09-02T09:28:29;29.00;97.40
3560;DHT22;1794;48.804;9.156;2022-09-02T09:30:58;30.60;95.70
3560;DHT22;1794;48.804;9.156;2022-09-02T09:33:25;31.30;94.80
3560;DHT22;1794;48.804;9.156;2022-09-02T09:35:54;31.50;92.80
3560;DHT22;1794;48.804;9.156;2022-09-02T09:38:28;32.30;92.30
3560;DHT22;1794;48.804;9.156;2022-09-02T09:41:11;33.20;90.00
3560;DHT22;1794;48.804;9.156;2022-09-02T09:43:39;25.80;92.20
3560;DHT22;1794;48.804;9.156;2022-09-02T09:46:21;26.70;94.10
3560;DHT22;1794;48.804;9.156;2022-09-02T09:48:50;26.80;94.60
3560;DHT22;1794;48.804;9.156;2022-09-02T09:51:19;27.40;95.40
3560;DHT22;1794;48.804;9.156;2022-09-02T09:53:46;29.70;92.60
3560;DHT22;1794;48.804;9.156;2022-09-02T09:56:39;30.60;93.10
3560;DHT22;1794;48.804;9.156;2022-09-02T09:59:08;26.60;93.90
3560;DHT22;1794;48.804;9.156;2022-09-02T10:01:54;29.80;93.20
3560;DHT22;1794;48.804;9.156;2022-09-02T10:04:27;31.70;90.60
3560;DHT22;1794;48.804;9.156;2022-09-02T10:06:55;31.30;88.80
3560;DHT22;1794;48.804;9.156;2022-09-02T10:09:30;30.90;86.40
3560;DHT22;1794;48.804;9.156;2022-09-02T10:11:59;29.60;88.30
3560;DHT22;1794;48.804;9.156;2022-09-02T10:14:30;29.60;89.80
3560;DHT22;1794;48.804;9.156;2022-09-02T10:17:09;28.70;89.80
3560;DHT22;1794;48.804;9.156;2022-09-02T10:19:46;31.00;88.90
3560;DHT22;1794;48.804;9.156;2022-09-02T10:25:26;27.60;85.40
3560;DHT22;1794;48.804;9.156;2022-09-02T10:27:59;28.00;85.00
3560;DHT22;1794;48.804;9.156;2022-09-02T10:30:31;30.00;87.00
3560;DHT22;1794;48.804;9.156;2022-09-02T10:33:12;32.30;82.60
3560;DHT22;1794;48.804;9.156;2022-09-02T10:35:45;33.10;81.40
3560;DHT22;1794;48.804;9.156;2022-09-02T10:38:27;33.40;78.00
3560;DHT22;1794;48.804;9.156;2022-09-02T10:41:07;27.90;79.50
3560;DHT22;1794;48.804;9.156;2022-09-02T10:43:53;25.90;80.50
3560;DHT22;1794;48.804;9.156;2022-09-02T10:46:24;25.70;84.70
3560;DHT22;1794;48.804;9.156;2022-09-02T10:48:55;25.80;85.90
3560;DHT22;1794;48.804;9.156;2022-09-02T10:51:34;24.80;86.00
3560;DHT22;1794;48.804;9.156;2022-09-02T10:54:19;27.00;86.40
3560;DHT22;1794;48.804;9.156;2022-09-02T10:56:53;27.60;82.00
3560;DHT22;1794;48.804;9.156;2022-09-02T10:59:25;27.80;86.00
3560;DHT22;1794;48.804;9.156;2022-09-02T11:01:59;26.30;84.50
3560;DHT22;1794;48.804;9.156;2022-09-02T11:04:35;25.80;84.70
3560;DHT22;1794;48.804;9.156;2022-09-02T11:07:03;26.00;86.30
3560;DHT22;1794;48.804;9.156;2022-09-02T11:09:37;27.80;84.40
3560;DHT22;1794;48.804;9.156;2022-09-02T11:12:09;26.60;86.20
3560;DHT22;1794;48.804;9.156;2022-09-02T11:14:47;27.30;86.50
3560;DHT22;1794;48.804;9.156;2022-09-02T11:17:20;29.60;83.70
3560;DHT22;1794;48.804;9.156;2022-09-02T11:19:54;31.20;79.50
3560;DHT22;1794;48.804;9.156;2022-09-02T11:22:27;31.20;80.20
3560;DHT22;1794;48.804;9.156;2022-09-02T11:25:02;32.30;75.80
3560;DHT22;1794;48.804;9.156;2022-09-02T11:27:36;28.10;74.80
3560;DHT22;1794;48.804;9.156;2022-09-02T11:30:10;26.50;83.90
3560;DHT22;1794;48.804;9.156;2022-09-02T11:32:41;26.20;85.90
3560;DHT22;1794;48.804;9.156;2022-09-02T11:35:13;26.90;82.50
3560;DHT22;1794;48.804;9.156;2022-09-02T11:37:43;28.10;81.80
3560;DHT22;1794;48.804;9.156;2022-09-02T11:40:17;30.30;79.70
3560;DHT22;1794;48.804;9.156;2022-09-02T11:43:02;31.00;77.10
3560;DHT22;1794;48.804;9.156;2022-09-02T11:45:42;29.40;78.90
3560;DHT22;1794;48.804;9.156;2022-09-02T11:48:34;30.10;78.60
3560;DHT22;1794;48.804;9.156;2022-09-02T11:51:25;26.60;80.90
3560;DHT22;1794;48.804;9.156;2022-09-02T11:53:59;28.20;80.80
3560;DHT22;1794;48.804;9.156;2022-09-02T11:56:35;30.60;77.20
3560;DHT22;1794;48.804;9.156;2022-09-02T11:59:05;27.10;81.60
3560;DHT22;1794;48.804;9.156;2022-09-02T12:01:34;28.80;81.10
3560;DHT22;1794;48.804;9.156;2022-09-02T12:04:03;30.50;79.10
3560;DHT22;1794;48.804;9.156;2022-09-02T12:06:31;32.30;76.80
3560;DHT22;1794;48.804;9.156;2022-09-02T12:09:09;28.50;78.70
3560;DHT22;1794;48.804;9.156;2022-09-02T12:11:48;29.40;77.30
3560;DHT22;1794;48.804;9.156;2022-09-02T12:17:33;30.30;76.60
3560;DHT22;1794;48.804;9.156;2022-09-02T12:20:03;30.40;75.70
3560;DHT22;1794;48.804;9.156;2022-09-02T12:22:35;30.20;75.60
3560;DHT22;1794;48.804;9.156;2022-09-02T12:28:16;27.20;80.70
3560;DHT22;1794;48.804;9.156;2022-09-02T12:31:08;27.30;78.70
3560;DHT22;1794;48.804;9.156;2022-09-02T12:33:38;27.40;80.50
3560;DHT22;1794;48.804;9.156;2022-09-02T12:36:05;27.40;78.20
3560;DHT22;1794;48.804;9.156;2022-09-02T12:38:38;29.90;76.80
3560;DHT22;1794;48.804;9.156;2022-09-02T12:41:15;30.50;73.80
3560;DHT22;1794;48.804;9.156;2022-09-02T12:43:54;30.10;76.60
3560;DHT22;1794;48.804;9.156;2022-09-02T12:46:30;29.30;78.20
3560;DHT22;1794;48.804;9.156;2022-09-02T12:49:04;26.90;80.60
3560;DHT22;1794;48.804;9.156;2022-09-02T12:51:57;26.90;80.40
3560;DHT22;1794;48.804;9.156;2022-09-02T12:54:34;26.50;81.90
3560;DHT22;1794;48.804;9.156;2022-09-02T12:57:02;26.40;80.40
3560;DHT22;1794;48.804;9.156;2022-09-02T12:59:32;25.40;83.80
3560;DHT22;1794;48.804;9.156;2022-09-02T13:02:22;26.20;83.80
3560;DHT22;1794;48.804;9.156;2022-09-02T13:05:00;24.80;83.60
3560;DHT22;1794;48.804;9.156;2022-09-02T13:13:51;24.50;88.80
3560;DHT22;1794;48.804;9.156;2022-09-02T13:16:36;23.90;89.90
3560;DHT22;1794;48.804;9.156;2022-09-02T13:19:29;23.90;89.20
3560;DHT22;1794;48.804;9.156;2022-09-02T13:22:36;24.00;90.60
3560;DHT22;1794;48.804;9.156;2022-09-02T13:25:33;24.20;89.50
3560;DHT22;1794;48.804;9.156;2022-09-02T13:28:45;23.60;90.00
3560;DHT22;1794;48.804;9.156;2022-09-02T13:31:19;23.90;90.10
3560;DHT22;1794;48.804;9.156;2022-09-02T13:33:56;23.20;90.00
3560;DHT22;1794;48.804;9.156;2022-09-02T13:36:27;23.50;90.90
3560;DHT22;1794;48.804;9.156;2022-09-02T13:38:54;23.30;90.80
3560;DHT22;1794;48.804;9.156;2022-09-02T13:41:29;24.00;91.00
3560;DHT22;1794;48.804;9.156;2022-09-02T13:44:06;24.50;89.00
3560;DHT22;1794;48.804;9.156;2022-09-02T13:46:45;24.50;90.60
3560;DHT22;1794;48.804;9.156;2022-09-02T13:49:25;24.90;90.70
3560;DHT22;1794;48.804;9.156;2022-09-02T13:51:54;25.00;90.10
3560;DHT22;1794;48.804;9.156;2022-09-02T13:54:28;24.50;90.00
3560;DHT22;1794;48.804;9.156;2022-09-02T13:56:57;23.30;89.50
3560;DHT22;1794;48.804;9.156;2022-09-02T13:59:33;23.80;90.90
3560;DHT22;1794;48.804;9.156;2022-09-02T14:02:19;23.70;91.30
3560;DHT22;1794;48.804;9.156;2022-09-02T14:04:50;24.30;91.90
3560;DHT22;1794;48.804;9.156;2022-09-02T14:07:25;24.70;91.50
3560;DHT22;1794;48.804;9.156;2022-09-02T14:09:52;25.10;91.20
3560;DHT22;1794;48.804;9.156;2022-09-02T14:12:19;23.60;91.20
3560;DHT22;1794;48.804;9.156;2022-09-02T14:14:46;23.60;92.30
3560;DHT22;1794;48.804;9.156;2022-09-02T14:17:16;24.00;91.90
3560;DHT22;1794;48.804;9.156;2022-09-02T14:19:43;24.70;92.30
3560;DHT22;1794;48.804;9.156;2022-09-02T14:22:21;24.00;92.60
3560;DHT22;1794;48.804;9.156;2022-09-02T14:24:49;23.60;92.30
3560;DHT22;1794;48.804;9.156;2022-09-02T14:27:17;23.40;92.40
3560;DHT22;1794;48.804;9.156;2022-09-02T14:29:46;23.70;92.70
3560;DHT22;1794;48.804;9.156;2022-09-02T14:32:19;23.80;91.90
3560;DHT22;1794;48.804;9.156;2022-09-02T14:34:47;24.00;91.90
3560;DHT22;1794;48.804;9.156;2022-09-02T14:37:20;23.30;91.90
3560;DHT22;1794;48.804;9.156;2022-09-02T14:39:51;23.90;92.80
3560;DHT22;1794;48.804;9.156;2022-09-02T14:42:18;23.90;92.90
3560;DHT22;1794;48.804;9.156;2022-09-02T14:44:45;23.50;93.10
3560;DHT22;1794;48.804;9.156;2022-09-02T14:47:14;23.70;93.70
3560;DHT22;1794;48.804;9.156;2022-09-02T14:49:48;23.80;93.30
3560;DHT22;1794;48.804;9.156;2022-09-02T14:52:20;24.40;92.80
3560;DHT22;1794;48.804;9.156;2022-09-02T14:54:49;23.90;93.50
3560;DHT22;1794;48.804;9.156;2022-09-02T14:57:21;24.30;93.50
3560;DHT22;1794;48.804;9.156;2022-09-02T14:59:49;24.50;92.30
3560;DHT22;1794;48.804;9.156;2022-09-02T15:02:23;24.70;92.30
3560;DHT22;1794;48.804;9.156;2022-09-02T15:04:55;24.50;92.50
3560;DHT22;1794;48.804;9.156;2022-09-02T15:07:24;24.70;92.80
3560;DHT22;1794;48.804;9.156;2022-09-02T15:09:51;24.20;92.70
3560;DHT22;1794;48.804;9.156;2022-09-02T15:12:19;24.50;93.20
3560;DHT22;1794;48.804;9.156;2022-09-02T15:14:49;24.40;92.70
3560;DHT22;1794;48.804;9.156;2022-09-02T15:17:16;24.50;92.10
3560;DHT22;1794;48.804;9.156;2022-09-02T15:19:43;24.50;93.30
3560;DHT22;1794;48.804;9.156;2022-09-02T15:22:10;24.10;93.20
3560;DHT22;1794;48.804;9.156;2022-09-02T15:24:38;24.20;93.80
3560;DHT22;1794;48.804;9.156;2022-09-02T15:27:07;24.00;94.00
3560;DHT22;1794;48.804;9.156;2022-09-02T15:29:34;24.10;94.80
3560;DHT22;1794;48.804;9.156;2022-09-02T15:32:01;24.20;93.70
3560;DHT22;1794;48.804;9.156;2022-09-02T15:34:29;24.30;94.60
3560;DHT22;1794;48.804;9.156;2022-09-02T15:36:55;24.10;93.30
3560;DHT22;1794;48.804;9.156;2022-09-02T15:39:22;24.10;93.40
3560;DHT22;1794;48.804;9.156;2022-09-02T15:41:52;23.80;93.60
3560;DHT22;1794;48.804;9.156;2022-09-02T15:44:20;23.80;93.90
3560;DHT22;1794;48.804;9.156;2022-09-02T15:46:51;23.80;93.90
3560;DHT22;1794;48.804;9.156;2022-09-02T15:49:19;23.80;94.50
3560;DHT22;1794;48.804;9.156;2022-09-02T15:51:47;23.60;94.50
3560;DHT22;1794;48.804;9.156;2022-09-02T15:54:16;23.50;94.50
3560;DHT22;1794;48.804;9.156;2022-09-02T15:56:44;23.50;94.50
3560;DHT22;1794;48.804;9.156;2022-09-02T15:59:14;23.30;94.40
3560;DHT22;1794;48.804;9.156;2022-09-02T16:01:43;23.40;94.30
3560;DHT22;1794;48.804;9.156;2022-09-02T16:04:11;23.30;94.20
3560;DHT22;1794;48.804;9.156;2022-09-02T16:06:40;23.40;94.20
3560;DHT22;1794;48.804;9.156;2022-09-02T16:09:08;23.30;94.90
3560;DHT22;1794;48.804;9.156;2022-09-02T16:11:36;23.50;95.10
3560;DHT22;1794;48.804;9.156;2022-09-02T16:14:03;23.20;95.20
3560;DHT22;1794;48.804;9.156;2022-09-02T16:16:32;23.20;96.30
3560;DHT22;1794;48.804;9.156;2022-09-02T16:19:01;23.50;95.20
3560;DHT22;1794;48.804;9.156;2022-09-02T16:21:28;23.70;95.20
3560;DHT22;1794;48.804;9.156;2022-09-02T16:23:55;23.60;94.90
3560;DHT22;1794;48.804;9.156;2022-09-02T16:26:23;23.70;94.80
3560;DHT22;1794;48.804;9.156;2022-09-02T16:28:51;23.60;95.40
3560;DHT22;1794;48.804;9.156;2022-09-02T16:31:19;23.40;95.10
3560;DHT22;1794;48.804;9.156;2022-09-02T16:33:52;23.20;94.70
3560;DHT22;1794;48.804;9.156;2022-09-02T16:36:20;23.30;95.30
3560;DHT22;1794;48.804;9.156;2022-09-02T16:38:47;23.50;95.60